Time;durP1;ratioP1;P1;durP2;ratioP2;P2;SDS_P1;SDS_P2;PMS_P1;PMS_P2;Temp;Humidity;BMP_temperature;BMP_pressure;BME280_temperature;BME280_humidity;BME280_pressure;Samples;Min_cycle;Max_cycle;Signal;HPM_P1;HPM_P2
2022/09/18 00:00:24;;;;;;;8.10;2.60;;;13.10;99.90;;;;;;2091092;28;20051;-72
2022/09/18 00:01:27;;;;;;;11.35;2.75;;;13.10;99.90;;;;;;2091493;28;20025;-71
2022/09/18 00:02:28;;;;;;;7.82;3.00;;;13.10;99.90;;;;;;2090827;28;20036;-71
2022/09/18 00:03:28;;;;;;;9.25;2.70;;;13.10;99.90;;;;;;2093436;28;20031;-72
2022/09/18 00:04:29;;;;;;;10.48;3.33;;;13.10;99.90;;;;;;2093394;28;20020;-72
2022/09/18 00:05:30;;;;;;;9.45;2.90;;;13.20;99.90;;;;;;2092739;28;20077;-72
2022/09/18 00:06:33;;;;;;;9.05;2.53;;;13.20;99.90;;;;;;2092555;28;20074;-72
2022/09/18 00:07:34;;;;;;;7.78;3.15;;;13.20;99.90;;;;;;2093151;28;20028;-72
2022/09/18 00:08:37;;;;;;;5.70;2.30;;;13.20;99.90;;;;;;2091543;28;20502;-72
2022/09/18 00:09:37;;;;;;;7.45;2.58;;;13.20;99.90;;;;;;2092374;28;20122;-72
2022/09/18 00:10:40;;;;;;;10.20;2.92;;;13.20;99.90;;;;;;2092253;28;20021;-72
2022/09/18 00:11:43;;;;;;;10.20;2.55;;;13.20;99.90;;;;;;2091683;28;20083;-72
2022/09/18 00:12:44;;;;;;;7.95;2.70;;;13.20;99.90;;;;;;2092756;28;20468;-72
2022/09/18 00:13:45;;;;;;;10.23;2.63;;;13.20;99.90;;;;;;2092904;28;20617;-72
2022/09/18 00:14:45;;;;;;;6.75;2.90;;;13.20;99.90;;;;;;2094685;28;20060;-72
2022/09/18 00:15:54;;;;;;;8.07;2.53;;;13.20;99.90;;;;;;2092259;28;20425;-72
2022/09/18 00:16:54;;;;;;;9.23;2.78;;;13.20;99.90;;;;;;2089696;28;20023;-72
2022/09/18 00:17:55;;;;;;;7.93;2.50;;;13.20;99.90;;;;;;2092346;28;20107;-72
2022/09/18 00:18:55;;;;;;;8.95;2.42;;;13.20;99.90;;;;;;2092701;28;20024;-72
2022/09/18 00:19:56;;;;;;;8.18;2.90;;;13.20;99.90;;;;;;2091991;28;20052;-72
2022/09/18 00:21:12;;;;;;;12.45;2.72;;;13.20;99.90;;;;;;2093839;28;20557;-72
2022/09/18 00:22:12;;;;;;;8.40;2.55;;;13.20;99.90;;;;;;2092285;28;20023;-72
2022/09/18 00:23:14;;;;;;;9.63;3.28;;;13.20;99.90;;;;;;2093551;28;20078;-72
2022/09/18 00:24:18;;;;;;;8.23;2.80;;;13.20;99.90;;;;;;2092313;28;20074;-72
2022/09/18 00:25:18;;;;;;;4.97;2.38;;;13.20;99.90;;;;;;2100134;28;20051;-72
2022/09/18 00:26:19;;;;;;;8.95;2.90;;;13.20;99.90;;;;;;2100873;28;20089;-72
2022/09/18 00:27:19;;;;;;;6.55;2.42;;;13.20;99.90;;;;;;2093005;28;20027;-72
2022/09/18 00:28:20;;;;;;;7.30;2.60;;;13.20;99.90;;;;;;2093082;28;20472;-72
2022/09/18 00:29:21;;;;;;;7.35;2.72;;;13.20;99.90;;;;;;2091258;28;20025;-72
2022/09/18 00:30:21;;;;;;;7.05;2.78;;;13.20;99.90;;;;;;2093502;28;20021;-72
2022/09/18 00:31:26;;;;;;;7.57;2.58;;;13.20;99.90;;;;;;2093388;28;20075;-72
2022/09/18 00:32:27;;;;;;;7.05;2.65;;;13.20;99.90;;;;;;2091760;28;20032;-72
2022/09/18 00:33:27;;;;;;;7.88;2.60;;;13.20;99.90;;;;;;2091862;28;20025;-72
2022/09/18 00:34:28;;;;;;;5.60;2.53;;;13.30;99.90;;;;;;2092166;28;20036;-72
2022/09/18 00:35:28;;;;;;;5.75;2.72;;;13.20;99.90;;;;;;2091897;28;20652;-72
2022/09/18 00:36:29;;;;;;;10.45;2.78;;;13.20;99.90;;;;;;2092078;28;20099;-72
2022/09/18 00:37:30;;;;;;;8.70;2.80;;;13.30;99.90;;;;;;2093875;28;20031;-72
2022/09/18 00:38:31;;;;;;;11.65;2.63;;;13.30;99.90;;;;;;2092548;28;20017;-72
2022/09/18 00:39:32;;;;;;;5.18;2.28;;;13.20;99.90;;;;;;2092550;28;20058;-72
2022/09/18 00:40:32;;;;;;;9.20;2.92;;;13.20;99.90;;;;;;2092026;28;20715;-72
2022/09/18 00:41:39;;;;;;;6.75;2.58;;;13.30;99.90;;;;;;2093780;28;20070;-72
2022/09/18 00:42:39;;;;;;;8.98;2.50;;;13.30;99.90;;;;;;2091854;28;20024;-72
2022/09/18 00:43:40;;;;;;;7.85;2.80;;;13.20;99.90;;;;;;2092761;28;20054;-72
2022/09/18 00:44:45;;;;;;;7.00;2.72;;;13.30;99.90;;;;;;2093460;28;20024;-72
2022/09/18 00:45:54;;;;;;;6.63;2.58;;;13.20;99.90;;;;;;2092504;28;20032;-72
2022/09/18 00:47:01;;;;;;;7.72;2.97;;;13.30;99.90;;;;;;2093095;28;20037;-72
2022/09/18 00:48:01;;;;;;;8.35;3.25;;;13.20;99.90;;;;;;2093070;28;20043;-72
2022/09/18 00:49:19;;;;;;;9.27;3.13;;;13.20;99.90;;;;;;2100252;28;20024;-72
2022/09/18 00:50:23;;;;;;;7.22;2.60;;;13.30;99.90;;;;;;2098309;28;20032;-72
2022/09/18 00:51:24;;;;;;;18.88;3.15;;;13.30;99.90;;;;;;2093524;28;20115;-72
2022/09/18 00:52:36;;;;;;;6.65;2.90;;;13.30;99.90;;;;;;2090414;28;20063;-72
2022/09/18 00:53:42;;;;;;;8.75;3.53;;;13.20;99.90;;;;;;2092971;28;20024;-72
2022/09/18 00:54:49;;;;;;;8.35;2.75;;;13.20;99.90;;;;;;2093791;28;20087;-72
2022/09/18 00:55:50;;;;;;;7.70;2.88;;;13.30;99.90;;;;;;2091191;28;20021;-72
2022/09/18 00:56:55;;;;;;;8.13;2.55;;;13.30;99.90;;;;;;2094013;28;20016;-72
2022/09/18 00:57:58;;;;;;;7.60;2.85;;;13.30;99.90;;;;;;2092649;28;20036;-72
2022/09/18 00:58:59;;;;;;;9.95;2.50;;;13.30;99.90;;;;;;2091356;28;20112;-72
2022/09/18 01:00:05;;;;;;;11.15;2.92;;;13.30;99.90;;;;;;2093241;28;20040;-72
2022/09/18 01:01:07;;;;;;;10.38;3.08;;;13.30;99.90;;;;;;2093453;28;20856;-72
2022/09/18 01:02:08;;;;;;;8.57;3.00;;;13.30;99.90;;;;;;2093221;28;20499;-72
2022/09/18 01:03:09;;;;;;;9.48;3.17;;;13.30;99.90;;;;;;2100238;28;20514;-72
2022/09/18 01:04:12;;;;;;;10.82;3.13;;;13.30;99.90;;;;;;2101006;28;20021;-72
2022/09/18 01:05:17;;;;;;;8.02;2.85;;;13.30;99.90;;;;;;2091822;28;20031;-72
2022/09/18 01:06:30;;;;;;;8.65;2.72;;;13.30;99.90;;;;;;2093796;28;20394;-72
2022/09/18 01:08:14;;;;;;;9.57;2.92;;;13.40;99.90;;;;;;2092165;28;20651;-72
2022/09/18 01:09:52;;;;;;;8.57;2.80;;;13.40;99.90;;;;;;2092398;28;20025;-72
2022/09/18 01:11:37;;;;;;;8.32;2.90;;;13.30;99.90;;;;;;2088170;28;20061;-72
2022/09/18 01:12:54;;;;;;;9.77;3.47;;;13.30;99.90;;;;;;2092012;28;20020;-72
2022/09/18 01:14:10;;;;;;;8.93;2.50;;;13.30;99.90;;;;;;2091668;28;20632;-72
2022/09/18 01:15:13;;;;;;;7.13;2.70;;;13.30;99.90;;;;;;2091054;28;20377;-72
2022/09/18 01:16:29;;;;;;;9.82;2.58;;;13.30;99.90;;;;;;2091642;28;20131;-72
2022/09/18 01:17:57;;;;;;;9.45;2.30;;;13.30;99.90;;;;;;2092454;28;20028;-72
2022/09/18 01:19:23;;;;;;;8.35;2.83;;;13.30;99.90;;;;;;2093879;28;20032;-72
2022/09/18 01:20:51;;;;;;;8.55;3.05;;;13.30;99.90;;;;;;2092645;28;20017;-72
2022/09/18 01:22:14;;;;;;;9.23;2.50;;;13.30;99.90;;;;;;2093756;28;20021;-72
2022/09/18 01:23:38;;;;;;;7.75;2.85;;;13.30;99.90;;;;;;2092187;28;20020;-72
2022/09/18 01:24:46;;;;;;;6.30;2.28;;;13.20;99.90;;;;;;2084054;28;20036;-72
2022/09/18 01:26:17;;;;;;;8.18;2.72;;;13.30;99.90;;;;;;2093967;28;20503;-72
2022/09/18 01:28:12;;;;;;;9.13;3.05;;;13.30;99.90;;;;;;2094830;28;20481;-72
2022/09/18 01:29:37;;;;;;;7.65;2.92;;;13.20;99.90;;;;;;2068838;28;20037;-72
2022/09/18 01:30:41;;;;;;;8.07;2.80;;;13.20;99.90;;;;;;2072830;28;20064;-72
2022/09/18 01:31:49;;;;;;;7.30;2.45;;;13.30;99.90;;;;;;2091246;28;20389;-72
2022/09/18 01:32:57;;;;;;;6.40;2.35;;;13.30;99.90;;;;;;2094044;28;20036;-72
2022/09/18 01:34:10;;;;;;;8.57;2.78;;;13.30;99.90;;;;;;2094583;28;20037;-72
2022/09/18 01:35:38;;;;;;;13.48;2.97;;;13.30;99.90;;;;;;2094721;28;20040;-72
2022/09/18 01:36:43;;;;;;;10.73;3.33;;;13.30;99.90;;;;;;2094263;28;20094;-72
2022/09/18 01:37:55;;;;;;;8.63;2.78;;;13.30;99.90;;;;;;2092660;28;20059;-72
2022/09/18 01:39:13;;;;;;;10.45;2.70;;;13.30;99.90;;;;;;2092586;28;20394;-72
2022/09/18 01:40:32;;;;;;;12.88;3.60;;;13.30;99.90;;;;;;2093680;28;20710;-72
2022/09/18 01:41:35;;;;;;;8.23;3.53;;;13.30;99.90;;;;;;2094445;28;20029;-72
2022/09/18 01:42:38;;;;;;;10.60;3.30;;;13.30;99.90;;;;;;2094750;28;20107;-72
2022/09/18 01:43:40;;;;;;;10.77;3.08;;;13.30;99.90;;;;;;2094289;28;20025;-72
2022/09/18 01:44:43;;;;;;;5.72;2.70;;;13.30;99.90;;;;;;2095160;28;20068;-72
2022/09/18 01:45:47;;;;;;;11.88;4.03;;;13.30;99.90;;;;;;2092507;28;20028;-72
2022/09/18 01:46:49;;;;;;;9.63;3.00;;;13.30;99.90;;;;;;2093380;28;20059;-72
2022/09/18 01:47:55;;;;;;;11.13;3.42;;;13.30;99.90;;;;;;2091878;28;20020;-72
2022/09/18 01:49:04;;;;;;;7.65;3.05;;;13.30;99.90;;;;;;2094888;28;20037;-72
2022/09/18 01:50:08;;;;;;;12.20;3.47;;;13.30;99.90;;;;;;2093776;28;20120;-72
2022/09/18 01:51:22;;;;;;;11.60;3.15;;;13.30;99.90;;;;;;2094572;28;20370;-72
2022/09/18 01:52:37;;;;;;;7.68;3.55;;;13.30;99.90;;;;;;2102351;28;20034;-72
2022/09/18 01:53:41;;;;;;;10.10;3.40;;;13.30;99.90;;;;;;2099226;28;20024;-72
2022/09/18 01:54:44;;;;;;;10.23;3.42;;;13.30;99.90;;;;;;2093613;28;20031;-72
2022/09/18 01:55:55;;;;;;;11.60;4.07;;;13.30;99.90;;;;;;2094287;28;20024;-71
2022/09/18 01:57:07;;;;;;;11.45;3.83;;;13.30;99.90;;;;;;2092574;28;20021;-72
2022/09/18 01:58:12;;;;;;;9.80;4.03;;;13.40;99.90;;;;;;2093894;28;20020;-72
2022/09/18 01:59:21;;;;;;;14.45;3.80;;;13.30;99.90;;;;;;2092428;28;20729;-72
2022/09/18 02:00:22;;;;;;;9.80;3.63;;;13.40;99.90;;;;;;2094133;28;20027;-72
2022/09/18 02:01:27;;;;;;;12.85;3.78;;;13.40;99.90;;;;;;2092601;28;20511;-72
2022/09/18 02:02:41;;;;;;;14.07;3.85;;;13.40;99.90;;;;;;2094003;28;20036;-71
2022/09/18 02:03:47;;;;;;;12.05;3.63;;;13.40;99.90;;;;;;2093573;28;20028;-72
2022/09/18 02:04:53;;;;;;;10.43;4.10;;;13.40;99.90;;;;;;2092681;28;20109;-71
2022/09/18 02:06:02;;;;;;;10.10;3.92;;;13.40;99.90;;;;;;2093581;28;20113;-72
2022/09/18 02:07:13;;;;;;;10.68;4.07;;;13.40;99.90;;;;;;2095293;28;20041;-72
2022/09/18 02:08:31;;;;;;;6.20;3.42;;;13.40;99.90;;;;;;2092638;28;20090;-72
2022/09/18 02:09:32;;;;;;;13.02;3.63;;;13.40;99.90;;;;;;2093778;28;20800;-72
2022/09/18 02:10:37;;;;;;;11.50;3.97;;;13.40;99.90;;;;;;2092875;28;20024;-72
2022/09/18 02:11:42;;;;;;;9.98;3.25;;;13.40;99.90;;;;;;2092543;28;20032;-72
2022/09/18 02:12:45;;;;;;;10.93;4.25;;;13.40;99.90;;;;;;2094485;28;20040;-72
2022/09/18 02:14:20;;;;;;;9.98;3.30;;;13.40;99.90;;;;;;2092783;28;20013;-72
2022/09/18 02:15:22;;;;;;;9.40;3.63;;;13.40;99.90;;;;;;2094119;28;20052;-72
2022/09/18 02:16:38;;;;;;;14.65;4.25;;;13.40;99.90;;;;;;2091953;28;20021;-71
2022/09/18 02:17:54;;;;;;;11.07;4.35;;;13.40;99.90;;;;;;2093664;28;20021;-71
2022/09/18 02:18:57;;;;;;;8.93;4.15;;;13.40;99.90;;;;;;2093198;28;20028;-72
2022/09/18 02:20:02;;;;;;;12.25;4.57;;;13.40;99.90;;;;;;2093335;28;20539;-72
2022/09/18 02:21:08;;;;;;;10.90;3.80;;;13.40;99.90;;;;;;2093668;28;20025;-72
2022/09/18 02:22:13;;;;;;;8.38;4.30;;;13.40;99.90;;;;;;2102462;28;20020;-72
2022/09/18 02:23:15;;;;;;;8.90;3.88;;;13.50;99.90;;;;;;2100160;28;20030;-72
2022/09/18 02:24:19;;;;;;;11.30;3.95;;;13.40;99.90;;;;;;2093627;28;20560;-72
2022/09/18 02:25:26;;;;;;;10.38;4.35;;;13.50;99.90;;;;;;2094421;28;20142;-72
2022/09/18 02:26:26;;;;;;;11.25;4.13;;;13.50;99.90;;;;;;2093584;28;20111;-72
2022/09/18 02:27:29;;;;;;;12.20;3.60;;;13.50;99.90;;;;;;2094365;28;20013;-72
2022/09/18 02:28:32;;;;;;;13.68;4.40;;;13.50;99.90;;;;;;2093391;28;20035;-72
2022/09/18 02:29:33;;;;;;;11.80;4.40;;;13.50;99.90;;;;;;2093116;28;20366;-72
2022/09/18 02:30:38;;;;;;;9.25;4.03;;;13.50;99.90;;;;;;2091299;28;20029;-72
2022/09/18 02:31:39;;;;;;;13.32;4.10;;;13.50;99.90;;;;;;2095057;28;20037;-72
2022/09/18 02:32:40;;;;;;;8.23;3.67;;;13.50;99.90;;;;;;2096796;28;20031;-72
2022/09/18 02:33:41;;;;;;;8.25;3.45;;;13.50;99.90;;;;;;2097279;28;20113;-72
2022/09/18 02:34:42;;;;;;;11.15;3.75;;;13.50;99.90;;;;;;2094321;28;20032;-72
2022/09/18 02:35:46;;;;;;;9.85;4.75;;;13.50;99.90;;;;;;2092111;28;20044;-72
2022/09/18 02:36:50;;;;;;;11.02;3.70;;;13.50;99.90;;;;;;2093195;28;20087;-72
2022/09/18 02:38:03;;;;;;;10.32;4.53;;;13.50;99.90;;;;;;2094002;28;20071;-72
2022/09/18 02:39:39;;;;;;;11.93;4.10;;;13.50;99.90;;;;;;2092711;28;20543;-72
2022/09/18 02:41:10;;;;;;;9.52;4.13;;;13.50;99.90;;;;;;2091870;28;20024;-72
2022/09/18 02:42:34;;;;;;;12.70;4.75;;;13.50;99.90;;;;;;2093120;28;20028;-72
2022/09/18 02:43:45;;;;;;;14.15;5.07;;;13.50;99.90;;;;;;2094266;28;20024;-72
2022/09/18 02:45:00;;;;;;;11.15;4.80;;;13.50;99.90;;;;;;2095445;28;20075;-72
2022/09/18 02:46:21;;;;;;;13.55;4.43;;;13.50;99.90;;;;;;2092061;28;20033;-72
2022/09/18 02:48:13;;;;;;;13.20;3.95;;;13.50;99.90;;;;;;2092702;28;20021;-72
2022/09/18 02:49:35;;;;;;;10.18;4.13;;;13.50;99.90;;;;;;2077688;28;20065;-72
2022/09/18 02:50:54;;;;;;;10.32;4.25;;;13.50;99.90;;;;;;2087137;28;20037;-72
2022/09/18 02:52:02;;;;;;;10.68;4.80;;;13.40;99.90;;;;;;2091604;28;20025;-72
2022/09/18 02:53:02;;;;;;;12.43;4.07;;;13.50;99.90;;;;;;2093581;28;20107;-72
2022/09/18 02:54:07;;;;;;;8.70;4.45;;;13.50;99.90;;;;;;2094664;28;20753;-72
2022/09/18 02:55:13;;;;;;;8.88;3.92;;;13.50;99.90;;;;;;2092518;28;20071;-72
2022/09/18 02:56:17;;;;;;;10.68;4.70;;;13.50;99.90;;;;;;2093216;28;20035;-72
2022/09/18 02:57:25;;;;;;;10.68;4.38;;;13.50;99.90;;;;;;2094252;28;20023;-72
2022/09/18 02:59:16;;;;;;;13.63;4.90;;;13.50;99.90;;;;;;2092131;28;20613;-72
2022/09/18 03:00:18;;;;;;;10.95;4.70;;;13.50;99.90;;;;;;2086699;28;20051;-72
2022/09/18 03:01:21;;;;;;;10.20;3.83;;;13.40;99.90;;;;;;2095388;28;20033;-72
2022/09/18 03:02:23;;;;;;;11.18;4.25;;;13.50;99.90;;;;;;2093073;28;20027;-72
2022/09/18 03:03:30;;;;;;;13.95;4.07;;;13.50;99.90;;;;;;2093706;28;20075;-72
2022/09/18 03:04:31;;;;;;;10.63;3.63;;;13.50;99.90;;;;;;2091927;28;20045;-72
2022/09/18 03:05:31;;;;;;;7.93;3.90;;;13.50;99.90;;;;;;2089660;28;20806;-72
2022/09/18 03:06:32;;;;;;;9.07;3.70;;;13.50;99.90;;;;;;2093167;28;20013;-72
2022/09/18 03:07:33;;;;;;;11.73;4.65;;;13.50;99.90;;;;;;2092584;28;20028;-72
2022/09/18 03:08:34;;;;;;;9.95;4.65;;;13.50;99.90;;;;;;2092400;28;20167;-72
2022/09/18 03:09:35;;;;;;;10.10;4.07;;;13.50;99.90;;;;;;2093895;28;20020;-72
2022/09/18 03:10:35;;;;;;;9.95;4.15;;;13.50;99.90;;;;;;2092558;28;20016;-71
2022/09/18 03:11:36;;;;;;;12.35;4.20;;;13.50;99.90;;;;;;2092809;28;20089;-72
2022/09/18 03:12:36;;;;;;;9.45;4.30;;;13.60;99.90;;;;;;2094361;28;20036;-72
2022/09/18 03:13:37;;;;;;;11.15;4.38;;;13.60;99.90;;;;;;2092529;28;20490;-72
2022/09/18 03:14:38;;;;;;;11.43;4.60;;;13.60;99.90;;;;;;2092737;28;20065;-72
2022/09/18 03:15:39;;;;;;;11.68;4.80;;;13.60;99.90;;;;;;2093849;28;20024;-72
2022/09/18 03:16:39;;;;;;;9.80;4.80;;;13.60;99.90;;;;;;2093617;28;20464;-72
2022/09/18 03:17:40;;;;;;;11.27;4.47;;;13.60;99.90;;;;;;2092619;28;20035;-72
2022/09/18 03:18:40;;;;;;;12.05;5.03;;;13.60;99.90;;;;;;2090991;28;20021;-72
2022/09/18 03:19:43;;;;;;;11.98;5.25;;;13.60;99.90;;;;;;2093560;28;20108;-72
2022/09/18 03:20:43;;;;;;;11.85;4.72;;;13.60;99.90;;;;;;2092095;28;20032;-72
2022/09/18 03:21:45;;;;;;;10.82;5.95;;;13.60;99.90;;;;;;2092053;28;20024;-72
2022/09/18 03:22:45;;;;;;;13.02;5.50;;;13.60;99.90;;;;;;2092353;28;20025;-72
2022/09/18 03:23:46;;;;;;;14.02;5.35;;;13.60;99.90;;;;;;2091459;28;20040;-72
2022/09/18 03:24:46;;;;;;;10.07;5.65;;;13.60;99.90;;;;;;2094857;28;20101;-72
2022/09/18 03:25:50;;;;;;;9.40;6.25;;;13.60;99.90;;;;;;2094543;28;20169;-72
2022/09/18 03:26:52;;;;;;;10.50;6.53;;;13.60;99.90;;;;;;2092169;28;20496;-72
2022/09/18 03:27:54;;;;;;;15.05;7.25;;;13.60;99.90;;;;;;2099118;28;20562;-72
2022/09/18 03:28:55;;;;;;;14.88;6.57;;;13.60;99.90;;;;;;2101030;28;20065;-72
2022/09/18 03:29:55;;;;;;;13.32;7.75;;;13.60;99.90;;;;;;2094733;28;20105;-72
2022/09/18 03:30:56;;;;;;;16.95;8.50;;;13.60;99.90;;;;;;2093314;28;20039;-72
2022/09/18 03:31:57;;;;;;;12.77;8.05;;;13.60;99.90;;;;;;2092728;28;20035;-71
2022/09/18 03:32:57;;;;;;;12.70;7.75;;;13.60;99.90;;;;;;2093942;28;20520;-72
2022/09/18 03:33:58;;;;;;;13.82;7.93;;;13.60;99.90;;;;;;2094217;28;20127;-72
2022/09/18 03:34:58;;;;;;;13.10;8.40;;;13.60;99.90;;;;;;2094350;28;20024;-72
2022/09/18 03:35:59;;;;;;;13.60;7.68;;;13.60;99.90;;;;;;2090106;28;20484;-72
2022/09/18 03:36:59;;;;;;;10.55;7.85;;;13.60;99.90;;;;;;2094546;28;20099;-72
2022/09/18 03:38:00;;;;;;;12.35;8.18;;;13.60;99.90;;;;;;2093573;28;20117;-72
2022/09/18 03:39:01;;;;;;;13.13;8.00;;;13.70;99.90;;;;;;2092221;28;20051;-72
2022/09/18 03:40:01;;;;;;;13.68;8.35;;;13.60;99.90;;;;;;2092618;28;20092;-72
2022/09/18 03:41:03;;;;;;;13.55;8.60;;;13.60;99.90;;;;;;2091734;28;20017;-72
2022/09/18 03:42:04;;;;;;;15.77;8.90;;;13.70;99.90;;;;;;2091818;28;20104;-72
2022/09/18 03:43:04;;;;;;;14.73;8.43;;;13.70;99.90;;;;;;2099825;28;20028;-72
2022/09/18 03:44:05;;;;;;;14.20;8.40;;;13.70;99.90;;;;;;2100034;28;20495;-72
2022/09/18 03:45:06;;;;;;;16.73;7.50;;;13.70;99.90;;;;;;2092666;28;20048;-72
2022/09/18 03:46:06;;;;;;;16.50;8.52;;;13.70;99.90;;;;;;2091370;28;20068;-72
2022/09/18 03:47:08;;;;;;;11.88;7.60;;;13.70;99.90;;;;;;2094268;28;20029;-72
2022/09/18 03:48:09;;;;;;;11.65;7.95;;;13.70;99.90;;;;;;2094325;28;20090;-72
2022/09/18 03:49:09;;;;;;;14.18;7.88;;;13.70;99.90;;;;;;2093422;28;20028;-72
2022/09/18 03:50:10;;;;;;;11.55;7.10;;;13.70;99.90;;;;;;2101900;28;20024;-72
2022/09/18 03:51:10;;;;;;;11.70;8.23;;;13.70;99.90;;;;;;2100138;28;20051;-72
2022/09/18 03:52:11;;;;;;;11.63;7.55;;;13.70;99.90;;;;;;2093887;28;20074;-72
2022/09/18 03:53:11;;;;;;;14.43;7.88;;;13.70;99.90;;;;;;2092321;28;20079;-72
2022/09/18 03:54:13;;;;;;;10.63;7.57;;;13.70;99.90;;;;;;2093460;28;20078;-72
2022/09/18 03:55:13;;;;;;;15.35;8.00;;;13.70;99.90;;;;;;2090256;28;20025;-72
2022/09/18 03:56:14;;;;;;;12.77;7.53;;;13.70;99.90;;;;;;2094440;28;20116;-72
2022/09/18 03:57:15;;;;;;;18.70;8.27;;;13.70;99.90;;;;;;2091440;28;20074;-72
2022/09/18 03:58:15;;;;;;;13.32;7.72;;;13.70;99.90;;;;;;2094793;28;20056;-72
2022/09/18 03:59:16;;;;;;;12.68;7.57;;;13.70;99.90;;;;;;2092261;28;20029;-72
2022/09/18 04:00:17;;;;;;;12.98;7.32;;;13.70;99.90;;;;;;2092928;28;20032;-72
2022/09/18 04:01:17;;;;;;;12.18;6.28;;;13.70;99.90;;;;;;2093090;28;20028;-72
2022/09/18 04:02:18;;;;;;;12.63;7.82;;;13.70;99.90;;;;;;2092449;28;20028;-72
2022/09/18 04:03:18;;;;;;;9.70;6.85;;;13.70;99.90;;;;;;2093646;28;20035;-72
2022/09/18 04:04:19;;;;;;;12.52;7.43;;;13.70;99.90;;;;;;2090853;28;20063;-72
2022/09/18 04:05:19;;;;;;;11.23;7.13;;;13.70;99.90;;;;;;2092007;28;20013;-72
2022/09/18 04:06:20;;;;;;;13.43;7.38;;;13.70;99.90;;;;;;2091799;28;20107;-72
2022/09/18 04:07:21;;;;;;;14.20;7.00;;;13.70;99.90;;;;;;2093430;28;20017;-72
2022/09/18 04:08:21;;;;;;;12.13;8.23;;;13.70;99.90;;;;;;2092474;28;20617;-73
2022/09/18 04:09:22;;;;;;;12.65;7.53;;;13.70;99.90;;;;;;2094852;28;20044;-72
2022/09/18 04:10:22;;;;;;;11.63;7.25;;;13.70;99.90;;;;;;2094376;28;20025;-72
2022/09/18 04:11:23;;;;;;;12.15;7.22;;;13.70;99.90;;;;;;2092880;28;20077;-72
2022/09/18 04:12:23;;;;;;;11.35;6.60;;;13.70;99.90;;;;;;2094076;28;20059;-72
2022/09/18 04:13:24;;;;;;;12.10;6.32;;;13.70;99.90;;;;;;2099416;28;20023;-72
2022/09/18 04:14:24;;;;;;;11.88;6.72;;;13.70;99.90;;;;;;2102139;28;20048;-72
2022/09/18 04:15:27;;;;;;;12.45;6.95;;;13.70;99.90;;;;;;2095093;28;20024;-72
2022/09/18 04:16:27;;;;;;;13.68;6.60;;;13.70;99.90;;;;;;2092411;28;20062;-72
2022/09/18 04:17:28;;;;;;;10.52;6.55;;;13.70;99.90;;;;;;2093602;28;20157;-72
2022/09/18 04:18:29;;;;;;;10.27;6.90;;;13.70;99.90;;;;;;2092766;28;20028;-72
2022/09/18 04:19:30;;;;;;;9.57;6.13;;;13.70;99.90;;;;;;2094067;28;20494;-71
2022/09/18 04:20:31;;;;;;;11.70;6.03;;;13.70;99.90;;;;;;2090443;28;20456;-72
2022/09/18 04:21:31;;;;;;;9.30;6.00;;;13.70;99.90;;;;;;2092767;28;20024;-72
2022/09/18 04:22:32;;;;;;;10.07;5.95;;;13.70;99.90;;;;;;2093209;28;20048;-72
2022/09/18 04:23:32;;;;;;;10.10;6.15;;;13.70;99.90;;;;;;2092899;28;20023;-72
2022/09/18 04:24:35;;;;;;;12.07;6.15;;;13.70;99.90;;;;;;2091514;28;20108;-72
2022/09/18 04:25:37;;;;;;;12.40;6.03;;;13.60;99.90;;;;;;2092436;28;20021;-72
2022/09/18 04:26:37;;;;;;;14.07;6.50;;;13.60;99.90;;;;;;2092656;28;20028;-72
2022/09/18 04:27:38;;;;;;;10.02;5.78;;;13.70;99.90;;;;;;2091378;28;20032;-72
2022/09/18 04:28:38;;;;;;;10.93;5.88;;;13.60;99.90;;;;;;2095443;28;20021;-72
2022/09/18 04:29:39;;;;;;;8.98;5.95;;;13.60;99.90;;;;;;2095925;28;20080;-72
2022/09/18 04:30:39;;;;;;;10.55;5.78;;;13.60;99.90;;;;;;2092949;28;20044;-72
2022/09/18 04:31:40;;;;;;;12.35;6.63;;;13.60;99.90;;;;;;2093897;28;20067;-72
2022/09/18 04:32:42;;;;;;;9.32;5.30;;;13.60;99.90;;;;;;2093048;28;20047;-72
2022/09/18 04:33:43;;;;;;;9.60;5.80;;;13.70;99.90;;;;;;2090699;28;20098;-72
2022/09/18 04:34:43;;;;;;;7.90;5.40;;;13.60;99.90;;;;;;2092644;28;20024;-72
2022/09/18 04:35:44;;;;;;;12.05;5.97;;;13.60;99.90;;;;;;2092624;28;20513;-72
2022/09/18 04:36:44;;;;;;;10.02;5.72;;;13.60;99.90;;;;;;2093330;28;20253;-72
2022/09/18 04:37:45;;;;;;;9.80;6.47;;;13.60;99.90;;;;;;2093056;28;20029;-72
2022/09/18 04:38:46;;;;;;;13.05;7.30;;;13.60;99.90;;;;;;2092206;28;20027;-72
2022/09/18 04:39:46;;;;;;;11.80;6.13;;;13.60;99.90;;;;;;2092412;28;20471;-72
2022/09/18 04:40:53;;;;;;;11.30;5.90;;;13.60;99.90;;;;;;2092526;28;20468;-72
2022/09/18 04:41:54;;;;;;;8.10;6.00;;;13.60;99.90;;;;;;2093062;28;20104;-72
2022/09/18 04:42:55;;;;;;;10.75;6.53;;;13.60;99.90;;;;;;2091772;28;20017;-72
2022/09/18 04:43:55;;;;;;;11.52;6.65;;;13.60;99.90;;;;;;2092685;28;20078;-72
2022/09/18 04:44:56;;;;;;;9.32;6.35;;;13.60;99.90;;;;;;2092160;28;20024;-72
2022/09/18 04:45:56;;;;;;;8.57;6.30;;;13.60;99.90;;;;;;2091868;28;20102;-72
2022/09/18 04:46:57;;;;;;;9.40;6.30;;;13.60;99.90;;;;;;2093994;28;20029;-72
2022/09/18 04:47:57;;;;;;;10.57;6.72;;;13.60;99.90;;;;;;2096200;28;20035;-72
2022/09/18 04:48:58;;;;;;;8.65;5.97;;;13.60;99.90;;;;;;2095631;28;20028;-72
2022/09/18 04:49:58;;;;;;;9.15;6.25;;;13.60;99.90;;;;;;2093576;28;20024;-72
2022/09/18 04:50:59;;;;;;;10.48;6.45;;;13.60;99.90;;;;;;2092381;28;20060;-72
2022/09/18 04:52:00;;;;;;;6.65;5.57;;;13.60;99.90;;;;;;2092025;28;20044;-72
2022/09/18 04:53:00;;;;;;;12.18;6.90;;;13.60;99.90;;;;;;2091043;28;20020;-72
2022/09/18 04:54:01;;;;;;;10.32;6.53;;;13.60;99.90;;;;;;2091914;28;20043;-72
2022/09/18 04:55:01;;;;;;;8.73;6.30;;;13.60;99.90;;;;;;2095774;28;20920;-72
2022/09/18 04:56:02;;;;;;;10.05;5.95;;;13.60;99.90;;;;;;2095791;28;20028;-72
2022/09/18 04:57:03;;;;;;;10.40;6.47;;;13.60;99.90;;;;;;2094568;28;20033;-72
2022/09/18 04:58:03;;;;;;;12.48;6.32;;;13.60;99.90;;;;;;2091867;28;20059;-72
2022/09/18 04:59:04;;;;;;;8.90;6.10;;;13.60;99.90;;;;;;2093947;28;20028;-72
2022/09/18 05:00:05;;;;;;;11.30;5.43;;;13.60;99.90;;;;;;2099388;28;20017;-72
2022/09/18 05:01:06;;;;;;;11.25;5.60;;;13.60;99.90;;;;;;2100400;28;20487;-72
2022/09/18 05:02:06;;;;;;;9.43;6.07;;;13.60;99.90;;;;;;2092271;28;20057;-72
2022/09/18 05:03:07;;;;;;;8.57;5.70;;;13.60;99.90;;;;;;2090829;28;20032;-72
2022/09/18 05:04:08;;;;;;;11.38;4.95;;;13.70;99.90;;;;;;2093321;28;20054;-72
2022/09/18 05:05:08;;;;;;;10.18;5.35;;;13.60;99.90;;;;;;2091562;28;20112;-72
2022/09/18 05:06:09;;;;;;;12.45;5.15;;;13.60;99.90;;;;;;2094428;28;20068;-72
2022/09/18 05:07:10;;;;;;;10.25;5.63;;;13.60;99.90;;;;;;2093306;28;20031;-72
2022/09/18 05:08:10;;;;;;;10.93;5.75;;;13.60;99.90;;;;;;2092700;28;20380;-72
2022/09/18 05:09:11;;;;;;;8.32;5.57;;;13.60;99.90;;;;;;2093083;28;20042;-72
2022/09/18 05:10:11;;;;;;;7.78;5.15;;;13.60;99.90;;;;;;2092262;28;20024;-72
2022/09/18 05:11:12;;;;;;;11.05;5.55;;;13.60;99.90;;;;;;2091644;28;20033;-72
2022/09/18 05:12:13;;;;;;;10.13;5.47;;;13.60;99.90;;;;;;2093024;28;20136;-72
2022/09/18 05:13:13;;;;;;;10.35;4.95;;;13.60;99.90;;;;;;2092735;28;20060;-72
2022/09/18 05:14:14;;;;;;;7.47;5.18;;;13.60;99.90;;;;;;2092099;28;20066;-72
2022/09/18 05:15:15;;;;;;;8.52;4.93;;;13.60;99.90;;;;;;2090729;28;20024;-72
2022/09/18 05:16:15;;;;;;;7.35;4.20;;;13.60;99.90;;;;;;2092433;28;20056;-72
2022/09/18 05:17:16;;;;;;;11.43;4.93;;;13.60;99.90;;;;;;2094208;28;20488;-72
2022/09/18 05:18:16;;;;;;;12.82;5.30;;;13.60;99.90;;;;;;2092947;28;20035;-72
2022/09/18 05:19:17;;;;;;;9.55;4.82;;;13.60;99.90;;;;;;2092679;28;20387;-72
2022/09/18 05:20:18;;;;;;;10.45;4.97;;;13.60;99.90;;;;;;2090923;28;20025;-72
2022/09/18 05:21:19;;;;;;;11.82;4.90;;;13.60;99.90;;;;;;2091663;28;20020;-72
2022/09/18 05:22:19;;;;;;;9.38;5.10;;;13.60;99.90;;;;;;2093010;28;20103;-72
2022/09/18 05:23:20;;;;;;;14.55;5.38;;;13.60;99.90;;;;;;2092511;28;20021;-72
2022/09/18 05:24:20;;;;;;;7.93;5.00;;;13.60;99.90;;;;;;2092077;28;20051;-72
2022/09/18 05:25:23;;;;;;;8.02;5.00;;;13.60;99.90;;;;;;2091391;28;20763;-72
2022/09/18 05:26:25;;;;;;;9.82;5.10;;;13.60;99.90;;;;;;2090883;28;21290;-72
2022/09/18 05:27:26;;;;;;;15.23;5.72;;;13.60;99.90;;;;;;2091290;28;20021;-72
2022/09/18 05:28:26;;;;;;;8.73;5.00;;;13.60;99.90;;;;;;2092592;28;20021;-72
2022/09/18 05:29:27;;;;;;;9.75;5.10;;;13.60;99.90;;;;;;2091731;28;20445;-72
2022/09/18 05:30:28;;;;;;;10.88;4.80;;;13.60;99.90;;;;;;2093438;28;20469;-72
2022/09/18 05:31:29;;;;;;;10.60;5.00;;;13.60;99.90;;;;;;2092408;28;20074;-72
2022/09/18 05:32:29;;;;;;;12.27;5.03;;;13.60;99.90;;;;;;2090635;28;20522;-72
2022/09/18 05:33:30;;;;;;;7.10;4.55;;;13.60;99.90;;;;;;2092045;28;20021;-72
2022/09/18 05:34:30;;;;;;;11.90;4.88;;;13.60;99.90;;;;;;2092830;28;20037;-72